Time;durP1;ratioP1;P1;durP2;ratioP2;P2;SDS_P1;SDS_P2;PMS_P1;PMS_P2;Temp;Humidity;BMP_temperature;BMP_pressure;BME280_temperature;BME280_humidity;BME280_pressure;Samples;Min_cycle;Max_cycle;Signal;HPM_P1;HPM_P2
2023/10/11 00:03:05;;;;;;;9.77;4.03;;;;;;;19.75;53.51;97506.53;4926766;28;20365;-79
2023/10/11 00:05:41;;;;;;;9.00;4.18;;;;;;;19.78;53.52;97508.59;4921437;28;20225;-79
2023/10/11 00:08:16;;;;;;;6.32;3.95;;;;;;;19.70;53.70;97506.59;4911280;28;20773;-79
2023/10/11 00:10:55;;;;;;;5.65;3.55;;;;;;;19.69;52.98;97502.38;4916030;28;20099;-79
2023/10/11 00:13:21;;;;;;;6.57;3.88;;;;;;;19.58;53.72;97502.59;4924813;28;20196;-79
2023/10/11 00:15:49;;;;;;;6.35;3.88;;;;;;;19.55;54.08;97510.31;4933931;28;20685;-79
2023/10/11 00:18:26;;;;;;;8.45;4.03;;;;;;;19.55;53.94;97505.84;4912416;28;20268;-78
2023/10/11 00:20:54;;;;;;;6.20;3.80;;;;;;;19.46;54.13;97511.00;4926281;28;20243;-79
2023/10/11 00:23:27;;;;;;;8.18;4.13;;;;;;;19.49;54.79;97506.22;4928798;28;20261;-78
2023/10/11 00:25:58;;;;;;;8.85;4.03;;;;;;;19.49;54.58;97512.28;4914463;28;20154;-79
2023/10/11 00:28:24;;;;;;;9.15;3.97;;;;;;;19.39;54.58;97507.97;4922582;28;20287;-78
2023/10/11 00:30:55;;;;;;;7.32;3.80;;;;;;;19.51;54.33;97514.63;4908768;28;20250;-78
2023/10/11 00:33:21;;;;;;;5.43;3.55;;;;;;;19.45;54.78;97508.69;4897192;28;20212;-79
2023/10/11 00:35:49;;;;;;;6.40;3.83;;;;;;;19.48;54.83;97500.16;4912387;28;20517;-78
2023/10/11 00:38:18;;;;;;;7.78;4.00;;;;;;;19.45;54.76;97500.75;4910601;28;20678;-78
2023/10/11 00:40:45;;;;;;;9.38;4.50;;;;;;;19.50;54.81;97495.38;4929527;28;20115;-78
2023/10/11 00:43:16;;;;;;;8.38;4.68;;;;;;;19.57;54.17;97503.69;4920488;28;20115;-78
2023/10/11 00:45:43;;;;;;;6.63;3.78;;;;;;;19.58;54.13;97496.53;4916521;28;20775;-78
2023/10/11 00:48:11;;;;;;;8.95;4.05;;;;;;;19.59;54.25;97490.97;4900913;28;20205;-78
2023/10/11 00:50:37;;;;;;;5.03;3.58;;;;;;;19.61;53.90;97491.44;4924155;28;20201;-78
2023/10/11 00:53:03;;;;;;;6.13;3.80;;;;;;;19.62;54.56;97489.56;4923077;28;20227;-79
2023/10/11 00:55:29;;;;;;;6.35;4.05;;;;;;;19.58;54.44;97492.03;4883140;28;20528;-78
2023/10/11 00:57:56;;;;;;;6.25;4.15;;;;;;;19.60;54.62;97486.44;4918858;28;20208;-78
2023/10/11 01:00:23;;;;;;;8.65;4.68;;;;;;;19.57;54.12;97487.03;4932799;28;20084;-78
2023/10/11 01:02:51;;;;;;;6.28;4.10;;;;;;;19.51;53.90;97472.38;4932580;28;20716;-79
2023/10/11 01:05:17;;;;;;;6.30;3.92;;;;;;;19.54;54.03;97480.50;4911161;28;20307;-78
2023/10/11 01:07:44;;;;;;;5.82;3.65;;;;;;;19.49;54.36;97477.19;4938011;28;20208;-78
2023/10/11 01:10:10;;;;;;;7.38;3.97;;;;;;;19.49;54.06;97483.25;4933609;28;20546;-78
2023/10/11 01:12:35;;;;;;;7.97;3.80;;;;;;;19.52;54.30;97473.94;4895702;28;20282;-78
2023/10/11 01:15:01;;;;;;;6.47;4.20;;;;;;;19.57;54.01;97472.00;4923248;28;20662;-78
2023/10/11 01:17:30;;;;;;;7.93;4.10;;;;;;;19.60;54.16;97474.03;4904188;28;20623;-78
2023/10/11 01:19:55;;;;;;;7.63;4.03;;;;;;;19.60;53.77;97473.25;4918294;28;20193;-77
2023/10/11 01:22:21;;;;;;;8.00;4.18;;;;;;;19.54;54.07;97464.66;4924998;28;20625;-78
2023/10/11 01:24:53;;;;;;;5.93;3.85;;;;;;;19.50;53.85;97471.59;4926918;28;20243;-78
2023/10/11 01:27:21;;;;;;;7.53;3.75;;;;;;;19.52;53.66;97474.72;4927951;28;20273;-78
2023/10/11 01:29:46;;;;;;;11.90;4.20;;;;;;;19.46;54.12;97479.31;4924906;28;20209;-78
2023/10/11 01:32:12;;;;;;;6.88;4.22;;;;;;;19.42;54.07;97477.56;4923350;28;20145;-78
2023/10/11 01:34:37;;;;;;;5.85;3.72;;;;;;;19.37;53.82;97475.03;4921843;28;20641;-78
2023/10/11 01:37:03;;;;;;;8.88;4.18;;;;;;;19.32;54.21;97475.91;4913082;28;20275;-78
2023/10/11 01:39:32;;;;;;;5.68;3.85;;;;;;;19.28;54.05;97474.94;4914073;28;20247;-78
2023/10/11 01:41:58;;;;;;;8.55;4.45;;;;;;;19.20;54.76;97479.03;4924702;28;20270;-78
2023/10/11 01:44:24;;;;;;;8.48;4.85;;;;;;;19.22;54.24;97474.22;4931146;28;20585;-78
2023/10/11 01:46:50;;;;;;;6.38;4.20;;;;;;;19.14;54.38;97468.84;4930085;28;20304;-78
2023/10/11 01:49:15;;;;;;;6.60;4.38;;;;;;;19.08;54.24;97468.94;4908548;28;20249;-78
2023/10/11 01:51:46;;;;;;;5.85;3.70;;;;;;;19.06;53.95;97465.81;4927081;28;20299;-78
2023/10/11 01:54:12;;;;;;;7.43;4.38;;;;;;;19.02;54.21;97464.06;4926837;28;20301;-77
2023/10/11 01:56:38;;;;;;;7.82;4.10;;;;;;;18.97;54.22;97450.94;4942274;28;20616;-78
2023/10/11 01:59:04;;;;;;;7.63;3.35;;;;;;;19.02;54.21;97453.50;4893791;28;20142;-78
2023/10/11 02:01:38;;;;;;;7.07;3.92;;;;;;;19.02;54.79;97448.22;4904355;28;20252;-78
2023/10/11 02:04:10;;;;;;;7.25;3.85;;;;;;;19.02;54.67;97450.84;4942622;28;20157;-78
2023/10/11 02:06:38;;;;;;;8.93;4.72;;;;;;;18.93;54.37;97447.34;4923668;28;20282;-78
2023/10/11 02:09:04;;;;;;;7.55;3.90;;;;;;;18.90;54.66;97449.50;4935187;28;20137;-78
2023/10/11 02:11:29;;;;;;;6.80;4.40;;;;;;;18.93;54.76;97444.69;4929760;28;20278;-78
2023/10/11 02:13:57;;;;;;;5.53;3.60;;;;;;;18.93;54.93;97442.06;4906425;28;20187;-79
2023/10/11 02:16:23;;;;;;;7.00;3.92;;;;;;;19.01;54.72;97444.03;4930907;28;20169;-78
2023/10/11 02:18:58;;;;;;;6.35;4.00;;;;;;;18.98;54.46;97434.06;4931215;28;20200;-78
2023/10/11 02:21:29;;;;;;;9.45;4.03;;;;;;;19.01;54.37;97442.16;4929960;28;20723;-78
2023/10/11 02:23:59;;;;;;;8.63;3.63;;;;;;;18.99;54.42;97435.63;4920255;28;20736;-78
2023/10/11 02:26:33;;;;;;;6.90;3.85;;;;;;;18.94;54.46;97433.84;4916075;28;20252;-78
2023/10/11 02:29:19;;;;;;;7.53;3.70;;;;;;;18.96;54.40;97436.22;4893047;28;20192;-78
2023/10/11 02:31:50;;;;;;;5.35;3.58;;;;;;;18.94;54.21;97438.38;4908602;28;20620;-78
2023/10/11 02:34:16;;;;;;;5.47;3.42;;;;;;;18.90;54.06;97433.66;4925170;28;20083;-78
2023/10/11 02:36:42;;;;;;;5.75;3.60;;;;;;;18.93;54.03;97436.78;4927174;28;20660;-78
2023/10/11 02:39:21;;;;;;;8.95;3.92;;;;;;;18.92;54.25;97433.38;4926136;28;20335;-79
2023/10/11 02:41:52;;;;;;;5.00;3.47;;;;;;;18.90;53.90;97433.66;4925335;28;20193;-79
2023/10/11 02:44:22;;;;;;;6.00;3.60;;;;;;;18.78;53.80;97422.78;4911641;28;20550;-79
2023/10/11 02:46:49;;;;;;;8.25;4.15;;;;;;;18.79;53.66;97432.25;4926775;28;20237;-79
2023/10/11 02:49:20;;;;;;;6.40;4.40;;;;;;;18.74;53.85;97424.41;4909531;28;20299;-78
2023/10/11 02:51:56;;;;;;;6.68;3.67;;;;;;;18.77;54.08;97421.19;4921948;28;20787;-79
2023/10/11 02:54:34;;;;;;;5.85;3.60;;;;;;;18.72;54.21;97429.22;4923082;28;20768;-79
2023/10/11 02:57:06;;;;;;;8.57;3.60;;;;;;;18.69;54.05;97427.16;4901954;28;20244;-78
2023/10/11 02:59:33;;;;;;;6.35;3.85;;;;;;;18.64;53.88;97425.38;4895696;28;20193;-79
2023/10/11 03:02:03;;;;;;;9.05;3.97;;;;;;;18.60;54.06;97418.34;4926565;28;20487;-78
2023/10/11 03:04:39;;;;;;;5.63;3.22;;;;;;;18.61;53.73;97425.16;4906102;28;20292;-78
2023/10/11 03:07:09;;;;;;;6.50;3.80;;;;;;;18.53;54.14;97427.41;4915292;28;20212;-79
2023/10/11 03:09:36;;;;;;;7.15;4.13;;;;;;;18.47;54.64;97418.03;4921047;28;20194;-79
2023/10/11 03:12:11;;;;;;;5.38;3.60;;;;;;;18.42;54.03;97418.13;4927872;28;20241;-79
2023/10/11 03:14:46;;;;;;;;;;;;;;;18.57;54.12;97430.25;4926166;28;20169;-79
2023/10/11 03:17:15;;;;;;;6.50;4.10;;;;;;;18.39;54.92;97429.22;4903943;28;20196;-79
2023/10/11 03:19:42;;;;;;;6.32;3.67;;;;;;;18.40;54.50;97427.38;4893360;28;20229;-79
2023/10/11 03:22:19;;;;;;;6.20;4.07;;;;;;;18.36;54.48;97421.91;4924271;28;20185;-78
2023/10/11 03:24:53;;;;;;;8.23;3.55;;;;;;;18.26;54.49;97419.44;4918393;28;20201;-79
2023/10/11 03:27:19;;;;;;;8.13;4.55;;;;;;;18.28;54.68;97422.56;4924581;28;20752;-79
2023/10/11 03:29:45;;;;;;;5.90;3.67;;;;;;;18.29;54.04;97416.22;4941864;28;20283;-78
2023/10/11 03:32:10;;;;;;;6.82;4.60;;;;;;;18.28;54.43;97410.16;4924532;28;20220;-78
2023/10/11 03:34:36;;;;;;;6.70;4.32;;;;;;;18.28;54.31;97401.47;4908286;28;20271;-78
2023/10/11 03:37:08;;;;;;;8.35;4.18;;;;;;;18.27;54.36;97394.63;4902685;28;20564;-78
2023/10/11 03:42:21;;;;;;;6.25;3.55;;;;;;;18.28;54.32;97401.47;4906651;28;20153;-78
2023/10/11 03:44:47;;;;;;;5.53;4.05;;;;;;;18.30;54.27;97401.94;4926132;28;20153;-78
2023/10/11 03:47:14;;;;;;;5.28;3.17;;;;;;;18.27;54.42;97400.69;4911208;28;20185;-78
2023/10/11 03:52:30;;;;;;;5.25;3.50;;;;;;;18.25;54.81;97407.31;4926527;28;20635;-78
2023/10/11 03:55:09;;;;;;;8.45;4.53;;;;;;;18.25;54.50;97404.66;4938157;28;20613;-78
2023/10/11 03:57:41;;;;;;;6.72;3.75;;;;;;;18.31;54.25;97412.22;4941247;28;20196;-78
2023/10/11 04:00:28;;;;;;;9.10;4.03;;;;;;;18.24;54.25;97403.91;4926310;28;20231;-78
2023/10/11 04:02:56;;;;;;;6.97;3.97;;;;;;;18.26;54.26;97414.94;4949832;28;20301;-78
2023/10/11 04:05:22;;;;;;;5.47;3.72;;;;;;;18.26;53.84;97408.88;4915309;28;20776;-78
2023/10/11 04:07:48;;;;;;;7.07;3.63;;;;;;;18.28;53.90;97401.47;4929891;28;20305;-78
2023/10/11 04:10:32;;;;;;;7.70;3.58;;;;;;;18.27;53.97;97405.97;4935888;28;20208;-78
2023/10/11 04:12:57;;;;;;;7.70;4.10;;;;;;;18.22;54.47;97403.41;4928515;28;20189;-78
2023/10/11 04:15:30;;;;;;;9.25;3.90;;;;;;;18.20;54.07;97394.22;4913576;28;20169;-78
2023/10/11 04:17:55;;;;;;;6.40;3.50;;;;;;;18.29;53.43;97397.75;4935988;28;20154;-78
2023/10/11 04:20:32;;;;;;;6.50;3.75;;;;;;;18.32;53.87;97403.25;4938273;28;20209;-77
2023/10/11 04:23:10;;;;;;;7.63;3.63;;;;;;;18.36;53.70;97402.66;4936257;28;20255;-78
2023/10/11 04:25:37;;;;;;;5.38;3.42;;;;;;;18.30;53.67;97401.94;4898637;28;20179;-78
2023/10/11 04:28:05;;;;;;;5.90;3.45;;;;;;;18.27;53.48;97408.59;4929830;28;20666;-78
2023/10/11 04:30:44;;;;;;;6.07;3.60;;;;;;;18.29;53.81;97403.03;4928892;28;20565;-78
2023/10/11 04:33:12;;;;;;;7.50;3.72;;;;;;;18.28;53.21;97399.63;4910956;28;20201;-78
2023/10/11 04:35:45;;;;;;;7.57;3.83;;;;;;;18.22;53.90;97392.88;4917330;28;20208;-78
2023/10/11 04:38:11;;;;;;;13.75;4.50;;;;;;;18.27;53.29;97394.63;4920882;28;20205;-78
2023/10/11 04:40:51;;;;;;;6.28;4.32;;;;;;;18.25;53.42;97399.41;4907319;28;20431;-78
2023/10/11 04:43:21;;;;;;;9.90;3.95;;;;;;;18.33;53.48;97396.09;4945460;28;20201;-78
2023/10/11 04:45:47;;;;;;;6.00;3.50;;;;;;;18.29;53.42;97388.00;4911646;28;20262;-78
2023/10/11 04:48:29;;;;;;;7.15;4.32;;;;;;;18.46;53.29;97391.94;4923350;28;20162;-78
2023/10/11 04:51:04;;;;;;;6.38;3.80;;;;;;;18.41;53.46;97389.41;4924754;28;20177;-79
2023/10/11 04:53:34;;;;;;;6.40;3.72;;;;;;;18.37;53.37;97406.84;4890833;28;20175;-78
2023/10/11 04:56:01;;;;;;;6.38;3.60;;;;;;;18.36;53.31;97398.16;4925736;28;20099;-78
2023/10/11 05:01:11;;;;;;;9.40;3.70;;;;;;;18.39;53.21;97402.88;4942194;28;20205;-79
2023/10/11 05:03:37;;;;;;;7.25;3.65;;;;;;;18.37;52.96;97399.75;4920439;28;20590;-79
2023/10/11 05:06:13;;;;;;;8.75;3.20;;;;;;;18.37;53.63;97405.03;4907837;28;20249;-78
2023/10/11 05:08:51;;;;;;;8.38;3.70;;;;;;;18.34;53.27;97408.22;4921548;28;20651;-79
2023/10/11 05:14:28;;;;;;;9.23;4.18;;;;;;;18.35;53.42;97396.59;4929156;28;20431;-79
2023/10/11 05:32:32;;;;;;;8.18;4.35;;;;;;;18.14;53.21;97396.16;4874738;28;20316;-79
2023/10/11 05:35:19;;;;;;;8.70;3.53;;;;;;;18.21;52.97;97396.56;4883892;28;20116;-79
2023/10/11 05:51:27;;;;;;;6.50;3.30;;;;;;;18.15;53.39;97411.69;4854278;28;20220;-78
2023/10/11 05:53:59;;;;;;;5.68;4.10;;;;;;;18.19;53.11;97414.53;4886049;28;20192;-79
2023/10/11 05:56:25;;;;;;;7.70;3.40;;;;;;;18.05;53.31;97403.94;4927821;28;20652;-79
2023/10/11 05:58:53;;;;;;;7.38;3.38;;;;;;;18.12;53.35;97416.75;4915155;28;20162;-79
2023/10/11 06:01:23;;;;;;;6.88;3.17;;;;;;;18.16;53.05;97415.09;4921919;28;20165;-81
2023/10/11 06:03:51;;;;;;;7.53;3.70;;;;;;;18.18;53.04;97412.16;4918739;28;20210;-79
2023/10/11 06:06:24;;;;;;;7.13;3.78;;;;;;;18.10;52.70;97419.66;4912186;28;20666;-79
2023/10/11 06:08:59;;;;;;;8.23;3.58;;;;;;;18.34;53.19;97416.13;4905006;28;20246;-78
2023/10/11 06:11:36;;;;;;;6.53;3.33;;;;;;;18.33;52.66;97419.84;4922492;28;20434;-79
2023/10/11 06:14:07;;;;;;;6.22;3.30;;;;;;;18.25;52.94;97423.91;4921713;28;20670;-78
2023/10/11 06:16:43;;;;;;;6.20;3.80;;;;;;;18.32;53.10;97413.00;4929930;28;20175;-79
2023/10/11 06:19:17;;;;;;;8.10;3.40;;;;;;;18.30;52.89;97415.13;4896758;28;20200;-79
2023/10/11 06:21:56;;;;;;;5.72;3.17;;;;;;;18.34;52.98;97405.59;4912594;28;20210;-79
2023/10/11 06:24:33;;;;;;;6.85;3.40;;;;;;;18.43;52.75;97417.03;4928395;28;20153;-79
2023/10/11 06:28:09;;;;;;;8.20;3.53;;;;;;;18.49;52.83;97423.78;4894079;28;20361;-79
2023/10/11 06:29:57;;;;;;;5.97;3.28;;;;;;;18.44;52.68;97405.41;4922987;28;20204;-79
2023/10/11 06:32:24;;;;;;;9.02;3.85;;;;;;;18.51;52.57;97408.47;4910567;28;20710;-79
2023/10/11 06:34:50;;;;;;;7.00;3.50;;;;;;;18.60;52.38;97428.91;4910596;28;20678;-78
2023/10/11 06:37:25;;;;;;;5.70;3.70;;;;;;;18.68;52.15;97428.22;4926600;28;20235;-78
2023/10/11 06:42:21;;;;;;;8.55;4.15;;;;;;;18.77;51.96;97437.03;4925383;28;20725;-78
2023/10/11 06:44:47;;;;;;;5.63;3.63;;;;;;;18.90;51.61;97444.22;4882036;28;20163;-79
2023/10/11 06:47:18;;;;;;;7.85;3.75;;;;;;;19.00;52.30;97445.88;4918163;28;20272;-79
2023/10/11 06:49:44;;;;;;;6.15;3.47;;;;;;;19.02;51.20;97443.75;4902220;28;20584;-79
2023/10/11 06:52:17;;;;;;;6.03;3.50;;;;;;;19.13;51.75;97436.41;4916373;28;20254;-79
2023/10/11 06:54:46;;;;;;;7.15;4.28;;;;;;;19.15;51.61;97438.75;4914671;28;20189;-80
2023/10/11 06:57:21;;;;;;;7.53;3.90;;;;;;;19.26;51.66;97435.63;4925842;28;20703;-79
2023/10/11 06:59:49;;;;;;;;;;;;;;;19.45;51.47;97442.66;4895145;28;20296;-80
2023/10/11 07:02:18;;;;;;;6.47;3.88;;;;;;;19.30;51.22;97454.31;4937878;28;20703;-79
2023/10/11 07:04:52;;;;;;;6.22;3.70;;;;;;;19.38;50.76;97437.78;4921654;28;20182;-79
2023/10/11 07:07:18;;;;;;;11.70;3.92;;;;;;;19.47;50.95;97437.84;4893216;28;20732;-80
2023/10/11 07:09:56;;;;;;;6.53;3.67;;;;;;;19.52;50.72;97437.75;4925555;28;20278;-80
2023/10/11 07:12:28;;;;;;;8.45;3.35;;;;;;;19.68;50.69;97432.94;4898561;28;20347;-80
2023/10/11 07:14:59;;;;;;;8.07;4.22;;;;;;;19.74;50.27;97423.03;4885484;28;20382;-79
2023/10/11 07:21:09;;;;;;;6.82;3.50;;;;;;;19.98;49.99;97426.22;4944312;28;20726;-80
2023/10/11 07:23:35;;;;;;;8.98;3.70;;;;;;;20.10;50.14;97435.47;4932323;28;20286;-79
2023/10/11 07:28:50;;;;;;;5.75;4.05;;;;;;;20.32;49.44;97446.06;4949648;28;20561;-79
2023/10/11 07:31:17;;;;;;;8.52;3.60;;;;;;;20.41;49.21;97443.47;4924220;28;20185;-80
2023/10/11 07:33:49;;;;;;;6.38;3.60;;;;;;;20.67;48.35;97446.31;4916597;28;20166;-79
2023/10/11 07:36:18;;;;;;;5.53;3.13;;;;;;;20.66;48.69;97451.88;4928349;28;20662;-79
2023/10/11 07:38:46;;;;;;;6.57;3.22;;;;;;;20.76;48.37;97441.81;4920377;28;20280;-79
2023/10/11 07:41:18;;;;;;;8.45;4.05;;;;;;;20.93;47.97;97453.59;4924852;28;20659;-79
2023/10/11 07:43:47;;;;;;;9.50;3.50;;;;;;;20.97;48.51;97443.94;4919881;28;20224;-79
2023/10/11 07:46:13;;;;;;;7.95;4.10;;;;;;;21.00;48.32;97435.41;4897166;28;20275;-79
2023/10/11 07:48:39;;;;;;;5.95;3.42;;;;;;;21.12;48.54;97448.81;4892905;28;20289;-79
2023/10/11 07:51:10;;;;;;;8.55;3.60;;;;;;;21.30;47.70;97454.16;4914298;28;20215;-79
2023/10/11 07:53:41;;;;;;;7.20;3.65;;;;;;;21.41;47.65;97450.16;4923989;28;20271;-80
2023/10/11 07:56:07;;;;;;;6.07;3.17;;;;;;;21.50;47.25;97460.81;4910817;28;20072;-79
2023/10/11 07:58:33;;;;;;;6.60;3.63;;;;;;;21.46;46.89;97451.91;4926906;28;20642;-79
2023/10/11 08:01:15;;;;;;;7.75;4.00;;;;;;;21.60;46.97;97451.78;4932652;28;20169;-79
2023/10/11 08:03:44;;;;;;;7.20;3.80;;;;;;;21.62;47.30;97449.63;4933461;28;20162;-79
2023/10/11 08:06:12;;;;;;;6.72;4.07;;;;;;;21.69;47.71;97457.88;4908509;28;20192;-79
2023/10/11 08:08:38;;;;;;;8.07;4.43;;;;;;;21.74;47.90;97456.97;4922642;28;20189;-78
2023/10/11 08:11:06;;;;;;;6.72;3.65;;;;;;;21.87;47.26;97462.13;4940892;28;20204;-78
2023/10/11 08:13:32;;;;;;;7.07;3.47;;;;;;;21.84;47.02;97454.00;4891798;28;20173;-79
2023/10/11 08:15:59;;;;;;;7.15;3.20;;;;;;;22.07;46.42;97462.56;4905333;28;20276;-79
2023/10/11 08:18:26;;;;;;;8.55;3.92;;;;;;;22.18;46.91;97452.47;4908910;28;20274;-79
2023/10/11 08:20:52;;;;;;;7.72;3.53;;;;;;;22.14;46.92;97447.00;4902135;28;20213;-79
2023/10/11 08:23:28;;;;;;;10.90;3.90;;;;;;;22.29;46.07;97451.06;4923997;28;20229;-78
2023/10/11 08:25:59;;;;;;;7.32;3.42;;;;;;;22.28;46.26;97454.81;4915554;28;20243;-79
2023/10/11 08:28:28;;;;;;;5.28;3.53;;;;;;;22.32;46.32;97449.66;4908485;28;20666;-79
2023/10/11 08:30:57;;;;;;;7.22;3.40;;;;;;;22.37;46.25;97446.84;4934872;28;20936;-79
2023/10/11 08:33:25;;;;;;;7.57;3.70;;;;;;;22.34;46.19;97466.03;4912354;28;20309;-79
2023/10/11 08:35:53;;;;;;;9.02;3.85;;;;;;;22.23;47.38;97463.69;4932687;28;20204;-80
2023/10/11 08:38:19;;;;;;;5.97;3.38;;;;;;;22.20;47.14;97466.94;4909428;28;20612;-80
2023/10/11 08:40:49;;;;;;;6.93;3.70;;;;;;;22.15;47.44;97469.75;4911797;28;20187;-79
2023/10/11 08:43:18;;;;;;;8.10;4.57;;;;;;;22.23;47.30;97484.91;4912739;28;20283;-79
2023/10/11 08:45:48;;;;;;;8.27;3.55;;;;;;;22.30;47.72;97473.06;4892744;28;20514;-80
2023/10/11 08:48:14;;;;;;;7.32;3.95;;;;;;;22.28;47.00;97469.94;4939857;28;20258;-80
2023/10/11 08:50:44;;;;;;;7.80;3.55;;;;;;;22.32;47.16;97481.50;4934963;28;20250;-80
2023/10/11 08:53:10;;;;;;;7.65;3.55;;;;;;;22.40;47.46;97467.44;4933007;28;20262;-79
2023/10/11 08:55:40;;;;;;;7.35;3.70;;;;;;;22.49;47.47;97478.81;4910458;28;20686;-80
2023/10/11 08:58:06;;;;;;;7.40;3.35;;;;;;;22.45;47.15;97488.50;4940171;28;20176;-79
2023/10/11 09:00:33;;;;;;;9.88;3.90;;;;;;;22.60;46.38;97484.56;4912567;28;20254;-81
2023/10/11 09:03:18;;;;;;;8.60;3.75;;;;;;;22.65;47.09;97480.97;4920261;28;20185;-79
2023/10/11 09:05:44;;;;;;;7.40;3.63;;;;;;;22.45;47.93;97480.56;4894607;28;20249;-80
2023/10/11 09:08:26;;;;;;;7.25;3.45;;;;;;;22.62;46.99;97471.78;4943153;28;20298;-80
2023/10/11 09:10:52;;;;;;;8.43;3.60;;;;;;;22.53;47.72;97471.78;4946397;28;20164;-79
2023/10/11 09:13:26;;;;;;;6.82;4.00;;;;;;;22.62;48.02;97477.09;4931102;28;20787;-79
2023/10/11 09:15:54;;;;;;;6.93;3.83;;;;;;;22.65;47.87;97465.06;4919239;28;20306;-79
2023/10/11 09:18:21;;;;;;;8.10;3.50;;;;;;;22.65;47.75;97473.00;4918901;28;20195;-78
2023/10/11 09:20:55;;;;;;;10.30;4.15;;;;;;;22.68;46.68;97467.06;4917298;28;20369;-80
2023/10/11 09:23:36;;;;;;;8.13;3.47;;;;;;;22.89;46.81;97473.25;4954471;28;20251;-78
2023/10/11 09:26:02;;;;;;;8.90;3.53;;;;;;;22.92;46.41;97472.63;4940068;28;20246;-78
2023/10/11 09:28:33;;;;;;;8.55;3.30;;;;;;;22.98;46.67;97468.72;4933411;28;20220;-79
2023/10/11 09:31:11;;;;;;;9.82;3.65;;;;;;;23.20;46.54;97472.22;4919824;28;20210;-78
2023/10/11 09:33:41;;;;;;;7.78;3.30;;;;;;;23.40;45.94;97469.97;4935623;28;20355;-79
2023/10/11 09:36:12;;;;;;;5.50;4.05;;;;;;;23.46;45.96;97469.47;4922258;28;20279;-79
2023/10/11 09:38:40;;;;;;;9.40;3.67;;;;;;;23.51;46.12;97473.78;4910350;28;20655;-79
2023/10/11 09:41:07;;;;;;;8.25;3.40;;;;;;;23.53;46.80;97466.31;4925752;28;20569;-78
2023/10/11 09:43:46;;;;;;;8.63;3.50;;;;;;;23.77;45.14;97462.22;4926848;28;20718;-78
2023/10/11 09:46:12;;;;;;;7.28;3.33;;;;;;;23.88;45.27;97463.44;4910689;28;20647;-78
2023/10/11 09:48:41;;;;;;;9.27;3.83;;;;;;;24.25;44.80;97477.69;4907757;28;20256;-78
2023/10/11 09:51:13;;;;;;;6.88;4.03;;;;;;;24.55;43.72;97474.94;4888219;28;20214;-79
2023/10/11 09:53:49;;;;;;;7.47;3.75;;;;;;;24.76;43.63;97469.56;4928036;28;20221;-78
2023/10/11 09:56:35;;;;;;;6.32;3.67;;;;;;;25.32;41.93;97485.06;4907199;28;20252;-78
2023/10/11 09:59:27;;;;;;;8.68;3.30;;;;;;;25.56;42.26;97483.50;4906892;28;20209;-78
2023/10/11 10:02:12;;;;;;;8.45;3.38;;;;;;;25.78;42.02;97485.69;4901175;28;20613;-78
2023/10/11 10:04:53;;;;;;;5.10;3.30;;;;;;;25.79;41.41;97471.25;4911150;28;20209;-79
2023/10/11 10:07:26;;;;;;;7.63;3.88;;;;;;;25.63;42.29;97472.28;4909190;28;20279;-79
2023/10/11 10:10:02;;;;;;;6.88;3.97;;;;;;;25.83;41.51;97470.56;4910783;28;20175;-78
2023/10/11 10:12:35;;;;;;;7.00;3.40;;;;;;;25.87;40.92;97466.88;4923257;28;20679;-78
2023/10/11 10:15:37;;;;;;;8.27;3.72;;;;;;;25.93;41.20;97475.44;4908100;28;20184;-78
2023/10/11 10:18:05;;;;;;;10.25;4.07;;;;;;;26.08;40.47;97476.63;4912416;28;20188;-78
2023/10/11 10:20:43;;;;;;;8.40;3.97;;;;;;;26.22;40.63;97477.03;4903593;28;20287;-78
2023/10/11 10:23:14;;;;;;;7.28;3.60;;;;;;;26.43;41.93;97470.72;4953587;28;20681;-79
2023/10/11 10:25:46;;;;;;;8.63;4.35;;;;;;;26.47;40.78;97474.25;4925727;28;20242;-78
2023/10/11 10:28:49;;;;;;;7.90;3.10;;;;;;;26.85;40.65;97470.28;4929550;28;20211;-78
2023/10/11 10:31:19;;;;;;;8.00;3.35;;;;;;;26.86;40.60;97474.50;4848836;29;20293;-79
2023/10/11 10:34:21;;;;;;;9.52;3.83;;;;;;;26.97;40.26;97464.84;4849978;29;20733;-79
2023/10/11 10:36:47;;;;;;;7.95;3.80;;;;;;;26.87;39.73;97470.69;4874510;28;20597;-79
2023/10/11 10:39:36;;;;;;;8.82;4.32;;;;;;;27.02;40.82;97461.16;4834612;29;20322;-79
2023/10/11 10:42:12;;;;;;;6.60;4.00;;;;;;;27.21;39.44;97460.44;4852691;29;20290;-79
2023/10/11 10:44:51;;;;;;;6.53;3.78;;;;;;;27.38;39.47;97462.78;4834422;29;20217;-78
2023/10/11 10:47:21;;;;;;;5.45;3.40;;;;;;;27.43;39.52;97459.81;4844889;29;20246;-78
2023/10/11 10:49:47;;;;;;;8.18;4.07;;;;;;;27.39;38.81;97456.31;4850101;29;20412;-78
2023/10/11 10:52:15;;;;;;;7.10;3.88;;;;;;;27.72;39.24;97452.41;4856726;29;20225;-78
2023/10/11 10:55:01;;;;;;;8.98;4.57;;;;;;;27.88;39.06;97451.59;4880796;28;20670;-77
2023/10/11 10:57:26;;;;;;;12.75;4.50;;;;;;;27.90;37.61;97446.66;4845635;29;20582;-78
2023/10/11 10:59:52;;;;;;;8.75;3.90;;;;;;;28.09;38.38;97441.34;4846518;29;20248;-78
2023/10/11 11:02:19;;;;;;;10.23;4.03;;;;;;;28.36;37.55;97431.53;4859881;29;20247;-78
2023/10/11 11:04:45;;;;;;;11.70;4.10;;;;;;;28.31;39.33;97436.38;4848353;28;20651;-77
2023/10/11 11:07:22;;;;;;;7.55;3.85;;;;;;;28.57;38.32;97435.75;4948504;28;20215;-78
2023/10/11 11:09:48;;;;;;;6.63;4.03;;;;;;;28.94;36.67;97435.19;4905232;28;20240;-78
2023/10/11 11:12:17;;;;;;;6.90;3.78;;;;;;;29.19;36.02;97429.47;4944479;28;20196;-79
2023/10/11 11:14:55;;;;;;;7.38;4.00;;;;;;;29.56;35.27;97429.59;4916962;28;20351;-79
2023/10/11 11:17:23;;;;;;;7.93;3.60;;;;;;;29.88;35.44;97439.97;4920547;28;20274;-78
2023/10/11 11:20:14;;;;;;;7.10;4.15;;;;;;;30.11;33.87;97437.19;4938500;28;20797;-78
2023/10/11 11:22:40;;;;;;;6.32;4.07;;;;;;;30.34;33.59;97434.34;4920560;28;20174;-79
2023/10/11 11:25:18;;;;;;;8.85;4.05;;;;;;;30.22;33.78;97431.91;4908354;28;20248;-77
2023/10/11 11:27:44;;;;;;;5.78;3.72;;;;;;;30.43;33.62;97436.75;4909402;28;20204;-79
2023/10/11 11:30:33;;;;;;;8.60;4.18;;;;;;;30.42;34.00;97436.00;4892142;28;20158;-78
2023/10/11 11:32:59;;;;;;;9.18;4.15;;;;;;;30.56;32.86;97410.41;4925279;28;20283;-78
2023/10/11 11:35:29;;;;;;;7.32;3.65;;;;;;;31.08;31.99;97421.94;4907885;28;20280;-78
2023/10/11 11:38:05;;;;;;;8.23;4.00;;;;;;;31.67;32.10;97416.56;4904136;28;20656;-78
2023/10/11 11:40:36;;;;;;;10.93;4.03;;;;;;;32.09;30.15;97411.72;4922774;28;20287;-78
2023/10/11 11:43:03;;;;;;;7.00;3.92;;;;;;;31.71;31.44;97401.19;4915916;28;20801;-79
2023/10/11 11:45:35;;;;;;;7.55;4.70;;;;;;;31.39;31.47;97409.06;4915845;28;20079;-78
2023/10/11 11:48:05;;;;;;;9.65;3.65;;;;;;;32.12;30.60;97396.72;4913733;28;20271;-78
2023/10/11 11:50:33;;;;;;;6.57;3.75;;;;;;;32.19;30.52;97402.88;4925220;28;20208;-78
2023/10/11 11:53:03;;;;;;;10.20;4.15;;;;;;;32.45;30.45;97390.22;4910039;28;20700;-78
2023/10/11 11:55:28;;;;;;;6.93;4.30;;;;;;;32.38;31.20;97401.75;4904087;28;20259;-78
2023/10/11 11:57:54;;;;;;;7.32;3.92;;;;;;;32.66;29.10;97398.34;4916670;28;20842;-78
2023/10/11 12:03:04;;;;;;;7.63;3.92;;;;;;;33.53;27.73;97388.16;4901912;28;20170;-79
2023/10/11 12:05:37;;;;;;;7.10;3.63;;;;;;;33.69;28.08;97392.38;4896530;28;20205;-78
2023/10/11 12:08:07;;;;;;;6.38;4.30;;;;;;;33.39;26.94;97382.81;4888007;28;20253;-79
2023/10/11 12:10:32;;;;;;;5.85;4.10;;;;;;;32.96;28.57;97377.50;4912182;28;20220;-79
2023/10/11 12:13:05;;;;;;;7.70;4.20;;;;;;;32.40;28.56;97388.66;4904240;28;20169;-79
2023/10/11 12:15:39;;;;;;;6.97;3.90;;;;;;;31.59;29.04;97388.06;4914097;28;20174;-79
2023/10/11 12:18:05;;;;;;;8.55;4.43;;;;;;;31.07;29.94;97388.16;4911024;28;20247;-79
2023/10/11 12:20:34;;;;;;;6.93;4.63;;;;;;;30.59;30.55;97393.53;4907564;28;20270;-79
2023/10/11 12:23:10;;;;;;;7.90;4.55;;;;;;;29.93;32.11;97388.66;4887682;28;20275;-78
2023/10/11 12:25:36;;;;;;;6.75;3.83;;;;;;;29.41;33.02;97380.34;4893376;28;20210;-78
2023/10/11 12:28:04;;;;;;;8.80;4.03;;;;;;;29.00;32.96;97384.72;4892667;28;20203;-79
2023/10/11 12:30:33;;;;;;;10.25;4.15;;;;;;;28.86;34.29;97383.38;4911973;28;20284;-79
2023/10/11 12:33:06;;;;;;;6.65;3.35;;;;;;;28.87;33.86;97384.91;4926639;28;20285;-79
2023/10/11 12:35:41;;;;;;;6.72;3.55;;;;;;;28.72;34.12;97372.41;4908997;28;20261;-77
2023/10/11 12:38:12;;;;;;;7.32;3.97;;;;;;;28.68;34.09;97371.59;4933604;28;20780;-79
2023/10/11 12:40:39;;;;;;;6.95;3.28;;;;;;;28.43;33.06;97371.97;4910900;28;20287;-79
2023/10/11 12:43:07;;;;;;;7.90;4.00;;;;;;;28.37;34.41;97368.00;4912687;28;20395;-79
2023/10/11 12:45:44;;;;;;;7.60;3.83;;;;;;;28.25;35.06;97363.59;4931692;28;20180;-79